Terminal Aerodrome Forecast
Issued by NWS

Home | Current Version | Previous Version | Text Only | Print | Product List | Glossary On
Versions: 1 2 3 4 5 6 7 8 9 10 11 12 13 14 15 16 17 18
000
FTUS44 KHGX 031139
TAFCXO
TAF
KCXO 031139Z 0312/0412 06011KT 4SM SHRA VCTS FEW005 OVC015CB
      TEMPO 0317/0321 1SM TSRA BKN007 BKN015CB
     FM040000 02007KT 4SM -SHRA SCT004 BKN007 OVC012
     FM040600 36009KT 3SM SHRA VCTS OVC007CB=

USA.gov is the U.S. government's official web portal to all federal, state and local government web resources and services.